sensor_id;sensor_type;location;lat;lon;timestamp;P1;durP1;ratioP1;P2;durP2;ratioP2
66175;SDS011;52977;44.816;20.538;2022-11-20T00:00:52;4.97;;;2.80;;
66175;SDS011;52977;44.816;20.538;2022-11-20T00:03:18;6.28;;;2.97;;
66175;SDS011;52977;44.816;20.538;2022-11-20T00:05:44;7.63;;;2.97;;
66175;SDS011;52977;44.816;20.538;2022-11-20T00:08:11;6.35;;;3.42;;
66175;SDS011;52977;44.816;20.538;2022-11-20T00:10:37;7.30;;;3.17;;
66175;SDS011;52977;44.816;20.538;2022-11-20T00:13:05;7.55;;;2.83;;
66175;SDS011;52977;44.816;20.538;2022-11-20T00:15:31;4.85;;;2.47;;
66175;SDS011;52977;44.816;20.538;2022-11-20T00:17:57;5.25;;;2.63;;
66175;SDS011;52977;44.816;20.538;2022-11-20T00:20:23;5.35;;;2.40;;
66175;SDS011;52977;44.816;20.538;2022-11-20T00:22:49;5.82;;;2.58;;
66175;SDS011;52977;44.816;20.538;2022-11-20T00:25:16;4.78;;;2.30;;
66175;SDS011;52977;44.816;20.538;2022-11-20T00:27:42;5.25;;;2.50;;
66175;SDS011;52977;44.816;20.538;2022-11-20T00:30:08;3.70;;;1.88;;
66175;SDS011;52977;44.816;20.538;2022-11-20T00:32:34;3.95;;;2.10;;
66175;SDS011;52977;44.816;20.538;2022-11-20T00:35:00;5.18;;;2.50;;
66175;SDS011;52977;44.816;20.538;2022-11-20T00:37:26;7.63;;;2.42;;
66175;SDS011;52977;44.816;20.538;2022-11-20T00:39:52;6.45;;;2.40;;
66175;SDS011;52977;44.816;20.538;2022-11-20T00:42:19;5.28;;;2.60;;
66175;SDS011;52977;44.816;20.538;2022-11-20T00:44:45;5.30;;;2.10;;
66175;SDS011;52977;44.816;20.538;2022-11-20T00:47:11;6.03;;;2.90;;
66175;SDS011;52977;44.816;20.538;2022-11-20T00:49:38;6.38;;;3.17;;
66175;SDS011;52977;44.816;20.538;2022-11-20T00:52:04;5.35;;;3.20;;
66175;SDS011;52977;44.816;20.538;2022-11-20T00:54:30;6.13;;;3.40;;
66175;SDS011;52977;44.816;20.538;2022-11-20T00:56:56;6.28;;;2.80;;
66175;SDS011;52977;44.816;20.538;2022-11-20T00:59:22;4.72;;;2.03;;
66175;SDS011;52977;44.816;20.538;2022-11-20T01:01:48;4.65;;;2.42;;
66175;SDS011;52977;44.816;20.538;2022-11-20T01:04:14;4.75;;;2.35;;
66175;SDS011;52977;44.816;20.538;2022-11-20T01:06:40;4.90;;;2.47;;
66175;SDS011;52977;44.816;20.538;2022-11-20T01:09:09;4.90;;;2.60;;
66175;SDS011;52977;44.816;20.538;2022-11-20T01:11:40;4.82;;;3.05;;
66175;SDS011;52977;44.816;20.538;2022-11-20T01:14:15;6.32;;;3.40;;
66175;SDS011;52977;44.816;20.538;2022-11-20T01:16:44;6.00;;;3.33;;
66175;SDS011;52977;44.816;20.538;2022-11-20T01:19:15;7.90;;;3.25;;
66175;SDS011;52977;44.816;20.538;2022-11-20T01:21:44;9.65;;;4.22;;
66175;SDS011;52977;44.816;20.538;2022-11-20T01:24:12;10.00;;;5.32;;
66175;SDS011;52977;44.816;20.538;2022-11-20T01:26:41;11.60;;;5.78;;
66175;SDS011;52977;44.816;20.538;2022-11-20T01:29:18;10.25;;;5.22;;
66175;SDS011;52977;44.816;20.538;2022-11-20T01:31:46;9.02;;;4.35;;
66175;SDS011;52977;44.816;20.538;2022-11-20T01:34:14;12.27;;;3.90;;
66175;SDS011;52977;44.816;20.538;2022-11-20T01:36:43;5.50;;;3.00;;
66175;SDS011;52977;44.816;20.538;2022-11-20T01:39:11;7.57;;;3.65;;
66175;SDS011;52977;44.816;20.538;2022-11-20T01:41:40;6.18;;;3.35;;
66175;SDS011;52977;44.816;20.538;2022-11-20T01:47:17;9.05;;;4.20;;
66175;SDS011;52977;44.816;20.538;2022-11-20T01:49:54;7.05;;;3.55;;
66175;SDS011;52977;44.816;20.538;2022-11-20T01:52:27;6.45;;;3.78;;
66175;SDS011;52977;44.816;20.538;2022-11-20T01:55:17;7.18;;;4.13;;
66175;SDS011;52977;44.816;20.538;2022-11-20T01:57:47;8.50;;;3.97;;
66175;SDS011;52977;44.816;20.538;2022-11-20T02:00:15;7.32;;;4.60;;
66175;SDS011;52977;44.816;20.538;2022-11-20T02:02:46;8.43;;;4.35;;
66175;SDS011;52977;44.816;20.538;2022-11-20T02:05:24;8.02;;;4.65;;
66175;SDS011;52977;44.816;20.538;2022-11-20T02:08:00;8.27;;;5.10;;
66175;SDS011;52977;44.816;20.538;2022-11-20T02:10:29;8.60;;;5.35;;
66175;SDS011;52977;44.816;20.538;2022-11-20T02:12:55;9.63;;;5.15;;
66175;SDS011;52977;44.816;20.538;2022-11-20T02:15:40;10.23;;;5.60;;
66175;SDS011;52977;44.816;20.538;2022-11-20T02:18:06;8.07;;;5.07;;
66175;SDS011;52977;44.816;20.538;2022-11-20T02:20:35;9.57;;;5.25;;
66175;SDS011;52977;44.816;20.538;2022-11-20T02:25:57;11.18;;;6.18;;
66175;SDS011;52977;44.816;20.538;2022-11-20T02:28:27;11.45;;;5.55;;
66175;SDS011;52977;44.816;20.538;2022-11-20T02:30:53;11.00;;;6.00;;
66175;SDS011;52977;44.816;20.538;2022-11-20T02:33:20;13.60;;;6.45;;
66175;SDS011;52977;44.816;20.538;2022-11-20T02:35:46;11.00;;;5.68;;
66175;SDS011;52977;44.816;20.538;2022-11-20T02:38:13;11.60;;;6.20;;
66175;SDS011;52977;44.816;20.538;2022-11-20T02:40:40;14.32;;;6.55;;
66175;SDS011;52977;44.816;20.538;2022-11-20T02:43:07;16.02;;;7.78;;
66175;SDS011;52977;44.816;20.538;2022-11-20T02:45:33;15.93;;;7.53;;
66175;SDS011;52977;44.816;20.538;2022-11-20T02:47:59;14.68;;;6.97;;
66175;SDS011;52977;44.816;20.538;2022-11-20T02:50:26;20.40;;;7.70;;
66175;SDS011;52977;44.816;20.538;2022-11-20T02:52:52;21.88;;;7.43;;
66175;SDS011;52977;44.816;20.538;2022-11-20T02:55:18;16.83;;;8.25;;
66175;SDS011;52977;44.816;20.538;2022-11-20T02:57:44;15.27;;;7.35;;
66175;SDS011;52977;44.816;20.538;2022-11-20T03:00:11;24.70;;;7.20;;
66175;SDS011;52977;44.816;20.538;2022-11-20T03:02:37;12.73;;;7.25;;
66175;SDS011;52977;44.816;20.538;2022-11-20T03:05:03;15.00;;;6.85;;
66175;SDS011;52977;44.816;20.538;2022-11-20T03:07:29;12.60;;;6.20;;
66175;SDS011;52977;44.816;20.538;2022-11-20T03:09:56;14.13;;;6.90;;
66175;SDS011;52977;44.816;20.538;2022-11-20T03:12:22;22.98;;;7.72;;
66175;SDS011;52977;44.816;20.538;2022-11-20T03:14:48;14.43;;;7.45;;
66175;SDS011;52977;44.816;20.538;2022-11-20T03:17:14;15.80;;;7.82;;
66175;SDS011;52977;44.816;20.538;2022-11-20T03:19:41;19.67;;;7.60;;
66175;SDS011;52977;44.816;20.538;2022-11-20T03:22:06;16.52;;;7.32;;
66175;SDS011;52977;44.816;20.538;2022-11-20T03:24:32;30.33;;;8.15;;
66175;SDS011;52977;44.816;20.538;2022-11-20T03:26:59;12.68;;;6.82;;
66175;SDS011;52977;44.816;20.538;2022-11-20T03:29:25;16.70;;;6.55;;
66175;SDS011;52977;44.816;20.538;2022-11-20T03:31:51;15.77;;;7.05;;
66175;SDS011;52977;44.816;20.538;2022-11-20T03:34:17;15.43;;;7.22;;
66175;SDS011;52977;44.816;20.538;2022-11-20T03:36:43;29.45;;;7.00;;
66175;SDS011;52977;44.816;20.538;2022-11-20T03:39:10;12.18;;;6.70;;
66175;SDS011;52977;44.816;20.538;2022-11-20T03:41:37;16.60;;;7.60;;
66175;SDS011;52977;44.816;20.538;2022-11-20T03:44:06;15.95;;;7.25;;
66175;SDS011;52977;44.816;20.538;2022-11-20T03:46:34;15.48;;;7.30;;
66175;SDS011;52977;44.816;20.538;2022-11-20T03:49:01;13.05;;;6.30;;
66175;SDS011;52977;44.816;20.538;2022-11-20T03:51:31;45.72;;;6.93;;
66175;SDS011;52977;44.816;20.538;2022-11-20T03:56:27;12.00;;;5.50;;
66175;SDS011;52977;44.816;20.538;2022-11-20T04:01:24;11.93;;;5.90;;
66175;SDS011;52977;44.816;20.538;2022-11-20T04:03:53;17.50;;;5.82;;
66175;SDS011;52977;44.816;20.538;2022-11-20T04:06:25;13.27;;;6.43;;
66175;SDS011;52977;44.816;20.538;2022-11-20T04:08:57;12.05;;;5.95;;
66175;SDS011;52977;44.816;20.538;2022-11-20T04:11:24;12.98;;;6.00;;
66175;SDS011;52977;44.816;20.538;2022-11-20T04:13:53;12.82;;;6.68;;
66175;SDS011;52977;44.816;20.538;2022-11-20T04:16:22;14.55;;;6.70;;
66175;SDS011;52977;44.816;20.538;2022-11-20T04:18:53;25.23;;;6.95;;
66175;SDS011;52977;44.816;20.538;2022-11-20T04:21:21;27.70;;;7.25;;
66175;SDS011;52977;44.816;20.538;2022-11-20T04:23:48;23.15;;;7.07;;
66175;SDS011;52977;44.816;20.538;2022-11-20T04:26:14;14.90;;;6.72;;
66175;SDS011;52977;44.816;20.538;2022-11-20T04:28:41;21.08;;;6.95;;
66175;SDS011;52977;44.816;20.538;2022-11-20T04:31:08;11.98;;;5.95;;
66175;SDS011;52977;44.816;20.538;2022-11-20T04:33:40;9.52;;;5.75;;
66175;SDS011;52977;44.816;20.538;2022-11-20T04:36:10;9.52;;;5.45;;
66175;SDS011;52977;44.816;20.538;2022-11-20T04:38:41;9.90;;;5.40;;
66175;SDS011;52977;44.816;20.538;2022-11-20T04:41:11;14.25;;;5.78;;
66175;SDS011;52977;44.816;20.538;2022-11-20T04:43:40;10.20;;;5.38;;
66175;SDS011;52977;44.816;20.538;2022-11-20T04:46:07;14.10;;;6.68;;
66175;SDS011;52977;44.816;20.538;2022-11-20T04:48:34;15.25;;;6.65;;
66175;SDS011;52977;44.816;20.538;2022-11-20T04:51:02;13.48;;;6.50;;
66175;SDS011;52977;44.816;20.538;2022-11-20T04:53:29;15.45;;;6.85;;
66175;SDS011;52977;44.816;20.538;2022-11-20T04:56:02;13.30;;;6.38;;
66175;SDS011;52977;44.816;20.538;2022-11-20T04:58:30;14.82;;;6.72;;
66175;SDS011;52977;44.816;20.538;2022-11-20T05:03:51;14.23;;;7.13;;
66175;SDS011;52977;44.816;20.538;2022-11-20T05:06:19;23.60;;;8.02;;
66175;SDS011;52977;44.816;20.538;2022-11-20T05:08:46;14.13;;;7.22;;
66175;SDS011;52977;44.816;20.538;2022-11-20T05:11:14;14.05;;;7.22;;
66175;SDS011;52977;44.816;20.538;2022-11-20T05:13:42;13.35;;;7.05;;
66175;SDS011;52977;44.816;20.538;2022-11-20T05:16:10;12.98;;;6.78;;
66175;SDS011;52977;44.816;20.538;2022-11-20T05:18:38;13.70;;;6.93;;
66175;SDS011;52977;44.816;20.538;2022-11-20T05:21:05;13.35;;;6.30;;
66175;SDS011;52977;44.816;20.538;2022-11-20T05:23:33;12.68;;;6.63;;
66175;SDS011;52977;44.816;20.538;2022-11-20T05:25:59;14.77;;;6.38;;
66175;SDS011;52977;44.816;20.538;2022-11-20T05:28:27;14.23;;;6.55;;
66175;SDS011;52977;44.816;20.538;2022-11-20T05:30:54;11.52;;;6.18;;
66175;SDS011;52977;44.816;20.538;2022-11-20T05:33:21;11.82;;;6.93;;
66175;SDS011;52977;44.816;20.538;2022-11-20T05:35:47;14.23;;;7.03;;
66175;SDS011;52977;44.816;20.538;2022-11-20T05:38:14;14.88;;;7.03;;
66175;SDS011;52977;44.816;20.538;2022-11-20T05:40:40;16.13;;;7.18;;
66175;SDS011;52977;44.816;20.538;2022-11-20T05:43:07;15.10;;;7.30;;
66175;SDS011;52977;44.816;20.538;2022-11-20T05:45:33;17.63;;;7.97;;
66175;SDS011;52977;44.816;20.538;2022-11-20T05:47:59;23.10;;;8.38;;
66175;SDS011;52977;44.816;20.538;2022-11-20T05:50:26;15.32;;;8.50;;
66175;SDS011;52977;44.816;20.538;2022-11-20T05:52:54;24.75;;;8.32;;
66175;SDS011;52977;44.816;20.538;2022-11-20T05:55:20;14.18;;;7.88;;
66175;SDS011;52977;44.816;20.538;2022-11-20T05:57:46;16.73;;;8.15;;
66175;SDS011;52977;44.816;20.538;2022-11-20T06:00:13;17.63;;;7.82;;
66175;SDS011;52977;44.816;20.538;2022-11-20T06:02:39;19.70;;;8.20;;
66175;SDS011;52977;44.816;20.538;2022-11-20T06:05:06;21.48;;;8.80;;
66175;SDS011;52977;44.816;20.538;2022-11-20T06:07:32;26.25;;;8.63;;
66175;SDS011;52977;44.816;20.538;2022-11-20T06:09:58;18.67;;;9.40;;
66175;SDS011;52977;44.816;20.538;2022-11-20T06:12:24;22.67;;;9.15;;
66175;SDS011;52977;44.816;20.538;2022-11-20T06:14:50;28.45;;;9.18;;
66175;SDS011;52977;44.816;20.538;2022-11-20T06:17:16;22.38;;;8.73;;
66175;SDS011;52977;44.816;20.538;2022-11-20T06:19:42;47.72;;;10.82;;
66175;SDS011;52977;44.816;20.538;2022-11-20T06:22:09;18.25;;;9.05;;
66175;SDS011;52977;44.816;20.538;2022-11-20T06:24:35;20.52;;;9.60;;
66175;SDS011;52977;44.816;20.538;2022-11-20T06:27:01;19.88;;;9.15;;
66175;SDS011;52977;44.816;20.538;2022-11-20T06:29:27;25.17;;;8.75;;
66175;SDS011;52977;44.816;20.538;2022-11-20T06:31:54;24.23;;;8.43;;
66175;SDS011;52977;44.816;20.538;2022-11-20T06:34:20;17.98;;;9.40;;
66175;SDS011;52977;44.816;20.538;2022-11-20T06:36:47;25.02;;;9.65;;
66175;SDS011;52977;44.816;20.538;2022-11-20T06:39:13;18.75;;;8.82;;
66175;SDS011;52977;44.816;20.538;2022-11-20T06:41:39;17.20;;;8.52;;
66175;SDS011;52977;44.816;20.538;2022-11-20T06:44:05;25.10;;;9.88;;
66175;SDS011;52977;44.816;20.538;2022-11-20T06:46:32;17.50;;;8.18;;
66175;SDS011;52977;44.816;20.538;2022-11-20T06:48:58;21.45;;;8.18;;
66175;SDS011;52977;44.816;20.538;2022-11-20T06:51:24;18.90;;;8.02;;
66175;SDS011;52977;44.816;20.538;2022-11-20T06:53:50;19.02;;;8.57;;
66175;SDS011;52977;44.816;20.538;2022-11-20T06:56:16;21.52;;;8.73;;
66175;SDS011;52977;44.816;20.538;2022-11-20T06:58:43;15.38;;;7.10;;
66175;SDS011;52977;44.816;20.538;2022-11-20T07:01:10;26.05;;;8.02;;
66175;SDS011;52977;44.816;20.538;2022-11-20T07:03:38;18.05;;;8.10;;
66175;SDS011;52977;44.816;20.538;2022-11-20T07:06:05;18.45;;;8.00;;
66175;SDS011;52977;44.816;20.538;2022-11-20T07:08:32;18.33;;;7.88;;
66175;SDS011;52977;44.816;20.538;2022-11-20T07:11:00;19.33;;;7.35;;
66175;SDS011;52977;44.816;20.538;2022-11-20T07:13:28;17.15;;;7.70;;
66175;SDS011;52977;44.816;20.538;2022-11-20T07:15:54;19.88;;;7.72;;
66175;SDS011;52977;44.816;20.538;2022-11-20T07:18:21;17.30;;;7.70;;
66175;SDS011;52977;44.816;20.538;2022-11-20T07:20:47;19.85;;;8.00;;
66175;SDS011;52977;44.816;20.538;2022-11-20T07:23:13;14.32;;;6.78;;
66175;SDS011;52977;44.816;20.538;2022-11-20T07:25:39;16.13;;;7.75;;
66175;SDS011;52977;44.816;20.538;2022-11-20T07:28:05;19.13;;;7.20;;
66175;SDS011;52977;44.816;20.538;2022-11-20T07:30:32;15.82;;;6.50;;
66175;SDS011;52977;44.816;20.538;2022-11-20T07:32:58;16.70;;;6.90;;
66175;SDS011;52977;44.816;20.538;2022-11-20T07:35:24;16.45;;;7.32;;
66175;SDS011;52977;44.816;20.538;2022-11-20T07:37:51;16.42;;;6.63;;
66175;SDS011;52977;44.816;20.538;2022-11-20T07:40:17;16.13;;;7.53;;
66175;SDS011;52977;44.816;20.538;2022-11-20T07:42:47;17.35;;;7.20;;
66175;SDS011;52977;44.816;20.538;2022-11-20T07:45:14;17.42;;;7.22;;
66175;SDS011;52977;44.816;20.538;2022-11-20T07:47:40;15.20;;;6.75;;
66175;SDS011;52977;44.816;20.538;2022-11-20T07:50:07;20.50;;;6.93;;
66175;SDS011;52977;44.816;20.538;2022-11-20T07:52:33;18.38;;;6.82;;
66175;SDS011;52977;44.816;20.538;2022-11-20T07:54:59;15.93;;;6.75;;
66175;SDS011;52977;44.816;20.538;2022-11-20T07:57:26;16.83;;;6.20;;
66175;SDS011;52977;44.816;20.538;2022-11-20T07:59:52;13.20;;;6.32;;
66175;SDS011;52977;44.816;20.538;2022-11-20T08:02:18;15.90;;;5.68;;
66175;SDS011;52977;44.816;20.538;2022-11-20T08:04:44;12.30;;;5.22;;
66175;SDS011;52977;44.816;20.538;2022-11-20T08:07:10;11.77;;;5.60;;
66175;SDS011;52977;44.816;20.538;2022-11-20T08:09:36;12.00;;;4.93;;
66175;SDS011;52977;44.816;20.538;2022-11-20T08:12:03;11.23;;;5.05;;
66175;SDS011;52977;44.816;20.538;2022-11-20T08:14:47;14.30;;;5.13;;
66175;SDS011;52977;44.816;20.538;2022-11-20T08:17:13;11.35;;;4.40;;
66175;SDS011;52977;44.816;20.538;2022-11-20T08:19:38;13.48;;;5.18;;
66175;SDS011;52977;44.816;20.538;2022-11-20T08:22:04;12.88;;;5.57;;
66175;SDS011;52977;44.816;20.538;2022-11-20T08:24:31;12.18;;;4.82;;
66175;SDS011;52977;44.816;20.538;2022-11-20T08:26:57;10.63;;;4.82;;
66175;SDS011;52977;44.816;20.538;2022-11-20T08:29:27;11.70;;;5.55;;
66175;SDS011;52977;44.816;20.538;2022-11-20T08:31:53;12.45;;;5.38;;
66175;SDS011;52977;44.816;20.538;2022-11-20T08:34:20;21.50;;;5.72;;
66175;SDS011;52977;44.816;20.538;2022-11-20T08:36:46;19.73;;;5.72;;
66175;SDS011;52977;44.816;20.538;2022-11-20T08:39:12;29.25;;;5.80;;
66175;SDS011;52977;44.816;20.538;2022-11-20T08:41:39;23.23;;;6.43;;
66175;SDS011;52977;44.816;20.538;2022-11-20T08:44:06;16.65;;;5.95;;
66175;SDS011;52977;44.816;20.538;2022-11-20T08:46:37;14.07;;;6.18;;
66175;SDS011;52977;44.816;20.538;2022-11-20T08:49:08;14.90;;;5.13;;
66175;SDS011;52977;44.816;20.538;2022-11-20T08:51:36;18.75;;;6.10;;
66175;SDS011;52977;44.816;20.538;2022-11-20T08:54:04;17.30;;;6.55;;
66175;SDS011;52977;44.816;20.538;2022-11-20T08:56:30;13.55;;;5.85;;
66175;SDS011;52977;44.816;20.538;2022-11-20T08:58:58;49.67;;;13.82;;
66175;SDS011;52977;44.816;20.538;2022-11-20T09:01:28;36.15;;;8.73;;
66175;SDS011;52977;44.816;20.538;2022-11-20T09:03:55;12.50;;;5.57;;
66175;SDS011;52977;44.816;20.538;2022-11-20T09:06:22;30.27;;;6.32;;
66175;SDS011;52977;44.816;20.538;2022-11-20T09:08:54;22.52;;;6.50;;
66175;SDS011;52977;44.816;20.538;2022-11-20T09:11:20;18.77;;;6.45;;
66175;SDS011;52977;44.816;20.538;2022-11-20T09:13:47;15.00;;;6.30;;
66175;SDS011;52977;44.816;20.538;2022-11-20T09:16:13;26.90;;;7.65;;
66175;SDS011;52977;44.816;20.538;2022-11-20T09:18:39;18.77;;;5.70;;
66175;SDS011;52977;44.816;20.538;2022-11-20T09:21:06;18.02;;;6.90;;
66175;SDS011;52977;44.816;20.538;2022-11-20T09:23:38;25.45;;;6.63;;
66175;SDS011;52977;44.816;20.538;2022-11-20T09:26:05;15.48;;;5.53;;
66175;SDS011;52977;44.816;20.538;2022-11-20T09:31:09;34.92;;;7.13;;
66175;SDS011;52977;44.816;20.538;2022-11-20T09:33:56;18.13;;;6.47;;
66175;SDS011;52977;44.816;20.538;2022-11-20T09:36:22;44.63;;;7.82;;
66175;SDS011;52977;44.816;20.538;2022-11-20T09:38:48;17.77;;;6.07;;
66175;SDS011;52977;44.816;20.538;2022-11-20T09:55:34;19.20;;;6.97;;
66175;SDS011;52977;44.816;20.538;2022-11-20T09:58:05;16.17;;;7.00;;
66175;SDS011;52977;44.816;20.538;2022-11-20T10:00:32;17.35;;;7.47;;
66175;SDS011;52977;44.816;20.538;2022-11-20T10:03:04;16.38;;;7.60;;
66175;SDS011;52977;44.816;20.538;2022-11-20T10:05:46;16.67;;;7.40;;
66175;SDS011;52977;44.816;20.538;2022-11-20T10:11:08;21.75;;;7.45;;
66175;SDS011;52977;44.816;20.538;2022-11-20T10:25:12;22.00;;;8.07;;
66175;SDS011;52977;44.816;20.538;2022-11-20T10:30:10;31.80;;;10.85;;
66175;SDS011;52977;44.816;20.538;2022-11-20T10:32:40;28.17;;;10.70;;
66175;SDS011;52977;44.816;20.538;2022-11-20T10:38:14;28.83;;;11.57;;
66175;SDS011;52977;44.816;20.538;2022-11-20T10:40:54;29.75;;;10.43;;
66175;SDS011;52977;44.816;20.538;2022-11-20T10:43:45;29.80;;;10.88;;
66175;SDS011;52977;44.816;20.538;2022-11-20T10:46:15;22.67;;;9.57;;
66175;SDS011;52977;44.816;20.538;2022-11-20T10:48:45;37.60;;;11.25;;
66175;SDS011;52977;44.816;20.538;2022-11-20T10:54:09;40.78;;;12.73;;
66175;SDS011;52977;44.816;20.538;2022-11-20T10:57:05;40.38;;;12.45;;
66175;SDS011;52977;44.816;20.538;2022-11-20T10:59:47;27.83;;;11.47;;
66175;SDS011;52977;44.816;20.538;2022-11-20T11:02:17;36.30;;;11.55;;
66175;SDS011;52977;44.816;20.538;2022-11-20T11:04:46;31.67;;;11.70;;
66175;SDS011;52977;44.816;20.538;2022-11-20T11:07:22;25.80;;;10.70;;
66175;SDS011;52977;44.816;20.538;2022-11-20T11:09:53;29.88;;;10.80;;
66175;SDS011;52977;44.816;20.538;2022-11-20T11:12:22;31.70;;;10.35;;
66175;SDS011;52977;44.816;20.538;2022-11-20T11:14:52;27.70;;;11.50;;
66175;SDS011;52977;44.816;20.538;2022-11-20T11:19:59;26.63;;;10.30;;
66175;SDS011;52977;44.816;20.538;2022-11-20T11:22:32;25.05;;;10.77;;
66175;SDS011;52977;44.816;20.538;2022-11-20T11:25:08;29.08;;;9.90;;
66175;SDS011;52977;44.816;20.538;2022-11-20T11:27:46;24.50;;;10.32;;
66175;SDS011;52977;44.816;20.538;2022-11-20T11:30:14;22.30;;;8.80;;
66175;SDS011;52977;44.816;20.538;2022-11-20T11:32:42;21.25;;;8.60;;
66175;SDS011;52977;44.816;20.538;2022-11-20T11:35:19;22.17;;;10.50;;
66175;SDS011;52977;44.816;20.538;2022-11-20T11:37:45;21.65;;;9.13;;
66175;SDS011;52977;44.816;20.538;2022-11-20T11:40:14;24.15;;;9.13;;
66175;SDS011;52977;44.816;20.538;2022-11-20T11:42:42;22.60;;;8.93;;
66175;SDS011;52977;44.816;20.538;2022-11-20T11:45:28;18.08;;;8.52;;
66175;SDS011;52977;44.816;20.538;2022-11-20T11:47:58;20.27;;;7.65;;
66175;SDS011;52977;44.816;20.538;2022-11-20T11:50:29;26.42;;;9.77;;
66175;SDS011;52977;44.816;20.538;2022-11-20T11:53:12;24.52;;;10.25;;
66175;SDS011;52977;44.816;20.538;2022-11-20T11:55:44;20.45;;;8.60;;
66175;SDS011;52977;44.816;20.538;2022-11-20T11:58:16;22.48;;;9.90;;
66175;SDS011;52977;44.816;20.538;2022-11-20T12:00:51;24.70;;;8.88;;
66175;SDS011;52977;44.816;20.538;2022-11-20T12:03:29;29.85;;;10.60;;
66175;SDS011;52977;44.816;20.538;2022-11-20T12:06:06;21.25;;;8.65;;
66175;SDS011;52977;44.816;20.538;2022-11-20T12:16:37;22.17;;;9.40;;
66175;SDS011;52977;44.816;20.538;2022-11-20T12:19:11;25.10;;;9.45;;
66175;SDS011;52977;44.816;20.538;2022-11-20T12:30:15;20.67;;;9.25;;
66175;SDS011;52977;44.816;20.538;2022-11-20T12:45:09;21.48;;;9.00;;
66175;SDS011;52977;44.816;20.538;2022-11-20T12:47:59;24.55;;;8.73;;
66175;SDS011;52977;44.816;20.538;2022-11-20T12:53:43;20.27;;;7.95;;
66175;SDS011;52977;44.816;20.538;2022-11-20T12:59:48;17.77;;;7.67;;
66175;SDS011;52977;44.816;20.538;2022-11-20T13:05:34;22.23;;;8.80;;
66175;SDS011;52977;44.816;20.538;2022-11-20T13:08:02;23.77;;;10.13;;
66175;SDS011;52977;44.816;20.538;2022-11-20T13:10:43;22.83;;;9.43;;
66175;SDS011;52977;44.816;20.538;2022-11-20T13:13:18;25.50;;;8.85;;
66175;SDS011;52977;44.816;20.538;2022-11-20T13:18:25;21.58;;;8.32;;
66175;SDS011;52977;44.816;20.538;2022-11-20T13:20:53;20.80;;;8.70;;
66175;SDS011;52977;44.816;20.538;2022-11-20T13:23:23;25.23;;;8.90;;
66175;SDS011;52977;44.816;20.538;2022-11-20T13:25:51;19.77;;;7.75;;
66175;SDS011;52977;44.816;20.538;2022-11-20T13:28:32;19.73;;;8.50;;
66175;SDS011;52977;44.816;20.538;2022-11-20T13:30:58;17.88;;;7.93;;
66175;SDS011;52977;44.816;20.538;2022-11-20T13:33:35;20.30;;;7.53;;
66175;SDS011;52977;44.816;20.538;2022-11-20T13:36:05;19.88;;;7.50;;
66175;SDS011;52977;44.816;20.538;2022-11-20T13:38:52;18.42;;;7.72;;
66175;SDS011;52977;44.816;20.538;2022-11-20T13:41:27;21.55;;;8.43;;
66175;SDS011;52977;44.816;20.538;2022-11-20T13:49:18;17.48;;;7.35;;
66175;SDS011;52977;44.816;20.538;2022-11-20T13:51:51;19.73;;;7.78;;
66175;SDS011;52977;44.816;20.538;2022-11-20T14:00:15;17.30;;;7.57;;
66175;SDS011;52977;44.816;20.538;2022-11-20T14:02:52;20.00;;;8.25;;
66175;SDS011;52977;44.816;20.538;2022-11-20T14:05:26;20.25;;;7.85;;
66175;SDS011;52977;44.816;20.538;2022-11-20T14:07:53;17.45;;;7.50;;
66175;SDS011;52977;44.816;20.538;2022-11-20T14:10:22;17.45;;;7.10;;
66175;SDS011;52977;44.816;20.538;2022-11-20T14:12:52;20.73;;;7.57;;
66175;SDS011;52977;44.816;20.538;2022-11-20T14:15:34;19.70;;;8.38;;
66175;SDS011;52977;44.816;20.538;2022-11-20T14:18:10;22.52;;;8.82;;
66175;SDS011;52977;44.816;20.538;2022-11-20T14:20:39;20.27;;;9.07;;
66175;SDS011;52977;44.816;20.538;2022-11-20T14:23:07;25.10;;;9.50;;
66175;SDS011;52977;44.816;20.538;2022-11-20T14:25:35;27.23;;;10.55;;
66175;SDS011;52977;44.816;20.538;2022-11-20T14:28:02;26.95;;;10.60;;
66175;SDS011;52977;44.816;20.538;2022-11-20T14:30:36;21.40;;;9.10;;
66175;SDS011;52977;44.816;20.538;2022-11-20T14:33:05;23.77;;;10.07;;
66175;SDS011;52977;44.816;20.538;2022-11-20T14:35:33;23.67;;;10.13;;
66175;SDS011;52977;44.816;20.538;2022-11-20T14:38:01;23.70;;;10.55;;
66175;SDS011;52977;44.816;20.538;2022-11-20T14:40:31;25.83;;;10.15;;
66175;SDS011;52977;44.816;20.538;2022-11-20T14:42:58;25.30;;;11.18;;
66175;SDS011;52977;44.816;20.538;2022-11-20T14:45:24;27.83;;;10.98;;
66175;SDS011;52977;44.816;20.538;2022-11-20T14:47:52;23.00;;;9.45;;
66175;SDS011;52977;44.816;20.538;2022-11-20T14:50:22;25.52;;;9.35;;
66175;SDS011;52977;44.816;20.538;2022-11-20T14:52:55;26.77;;;10.55;;
66175;SDS011;52977;44.816;20.538;2022-11-20T14:55:56;20.17;;;8.48;;
66175;SDS011;52977;44.816;20.538;2022-11-20T14:58:22;24.63;;;10.15;;
66175;SDS011;52977;44.816;20.538;2022-11-20T15:01:12;25.52;;;10.50;;
66175;SDS011;52977;44.816;20.538;2022-11-20T15:03:39;24.58;;;10.55;;
66175;SDS011;52977;44.816;20.538;2022-11-20T15:06:07;23.63;;;9.90;;
66175;SDS011;52977;44.816;20.538;2022-11-20T15:08:36;25.08;;;9.80;;
66175;SDS011;52977;44.816;20.538;2022-11-20T15:11:02;19.25;;;8.55;;
66175;SDS011;52977;44.816;20.538;2022-11-20T15:13:41;16.33;;;7.10;;
66175;SDS011;52977;44.816;20.538;2022-11-20T15:16:17;18.77;;;6.97;;
66175;SDS011;52977;44.816;20.538;2022-11-20T15:18:45;17.90;;;7.32;;
66175;SDS011;52977;44.816;20.538;2022-11-20T15:21:12;17.95;;;6.75;;
66175;SDS011;52977;44.816;20.538;2022-11-20T15:23:41;18.02;;;7.50;;
66175;SDS011;52977;44.816;20.538;2022-11-20T15:26:08;16.25;;;6.97;;
66175;SDS011;52977;44.816;20.538;2022-11-20T15:28:36;18.77;;;7.53;;
66175;SDS011;52977;44.816;20.538;2022-11-20T15:31:08;19.10;;;7.78;;
66175;SDS011;52977;44.816;20.538;2022-11-20T15:33:37;19.85;;;8.13;;
66175;SDS011;52977;44.816;20.538;2022-11-20T15:36:04;18.30;;;8.23;;
66175;SDS011;52977;44.816;20.538;2022-11-20T15:38:30;25.13;;;9.23;;
66175;SDS011;52977;44.816;20.538;2022-11-20T15:40:56;25.08;;;9.35;;
66175;SDS011;52977;44.816;20.538;2022-11-20T15:43:23;22.08;;;9.70;;
66175;SDS011;52977;44.816;20.538;2022-11-20T15:45:49;20.40;;;8.68;;
66175;SDS011;52977;44.816;20.538;2022-11-20T15:53:22;22.02;;;9.40;;
66175;SDS011;52977;44.816;20.538;2022-11-20T15:55:49;26.60;;;10.38;;
66175;SDS011;52977;44.816;20.538;2022-11-20T15:58:15;22.02;;;9.35;;
66175;SDS011;52977;44.816;20.538;2022-11-20T16:00:42;22.40;;;8.82;;
66175;SDS011;52977;44.816;20.538;2022-11-20T16:03:13;24.80;;;9.82;;
66175;SDS011;52977;44.816;20.538;2022-11-20T16:05:41;24.38;;;10.57;;
66175;SDS011;52977;44.816;20.538;2022-11-20T16:08:07;25.10;;;10.10;;
66175;SDS011;52977;44.816;20.538;2022-11-20T16:10:34;25.02;;;10.35;;
66175;SDS011;52977;44.816;20.538;2022-11-20T16:13:01;22.30;;;8.85;;
66175;SDS011;52977;44.816;20.538;2022-11-20T16:15:55;24.95;;;9.95;;
66175;SDS011;52977;44.816;20.538;2022-11-20T16:18:23;26.80;;;9.93;;
66175;SDS011;52977;44.816;20.538;2022-11-20T16:20:51;23.00;;;9.95;;
66175;SDS011;52977;44.816;20.538;2022-11-20T16:23:18;23.70;;;10.85;;
66175;SDS011;52977;44.816;20.538;2022-11-20T16:25:46;25.23;;;9.73;;